sensor_id;sensor_type;location;lat;lon;timestamp;P1;durP1;ratioP1;P2;durP2;ratioP2
34072;SDS011;20346;52.702;16.886;2023-12-04T00:01:55;29.40;;;16.70;;
34072;SDS011;20346;52.702;16.886;2023-12-04T00:04:42;28.60;;;16.20;;
34072;SDS011;20346;52.702;16.886;2023-12-04T00:07:28;28.20;;;16.60;;
34072;SDS011;20346;52.702;16.886;2023-12-04T00:10:14;28.60;;;15.50;;
34072;SDS011;20346;52.702;16.886;2023-12-04T00:13:01;34.60;;;17.10;;
34072;SDS011;20346;52.702;16.886;2023-12-04T00:15:47;28.10;;;16.80;;
34072;SDS011;20346;52.702;16.886;2023-12-04T00:18:33;31.70;;;17.20;;
34072;SDS011;20346;52.702;16.886;2023-12-04T00:21:20;34.10;;;18.40;;
34072;SDS011;20346;52.702;16.886;2023-12-04T00:24:06;30.20;;;18.10;;
34072;SDS011;20346;52.702;16.886;2023-12-04T00:26:52;25.60;;;14.50;;
34072;SDS011;20346;52.702;16.886;2023-12-04T00:29:39;35.80;;;17.20;;
34072;SDS011;20346;52.702;16.886;2023-12-04T00:32:25;29.20;;;16.80;;
34072;SDS011;20346;52.702;16.886;2023-12-04T00:35:12;28.00;;;17.70;;
34072;SDS011;20346;52.702;16.886;2023-12-04T00:37:59;29.90;;;16.90;;
34072;SDS011;20346;52.702;16.886;2023-12-04T00:40:45;28.80;;;17.00;;
34072;SDS011;20346;52.702;16.886;2023-12-04T00:43:31;23.00;;;13.40;;
34072;SDS011;20346;52.702;16.886;2023-12-04T00:46:17;32.70;;;18.60;;
34072;SDS011;20346;52.702;16.886;2023-12-04T00:51:49;24.90;;;15.60;;
34072;SDS011;20346;52.702;16.886;2023-12-04T00:54:38;28.60;;;16.00;;
34072;SDS011;20346;52.702;16.886;2023-12-04T00:57:25;21.30;;;12.60;;
34072;SDS011;20346;52.702;16.886;2023-12-04T01:02:57;28.60;;;16.20;;
34072;SDS011;20346;52.702;16.886;2023-12-04T01:05:43;30.20;;;16.20;;
34072;SDS011;20346;52.702;16.886;2023-12-04T01:08:29;27.00;;;15.60;;
34072;SDS011;20346;52.702;16.886;2023-12-04T01:11:16;29.90;;;17.00;;
34072;SDS011;20346;52.702;16.886;2023-12-04T01:14:03;26.10;;;16.00;;
34072;SDS011;20346;52.702;16.886;2023-12-04T01:16:49;29.90;;;15.90;;
34072;SDS011;20346;52.702;16.886;2023-12-04T01:22:21;28.90;;;16.60;;
34072;SDS011;20346;52.702;16.886;2023-12-04T01:25:07;25.70;;;15.70;;
34072;SDS011;20346;52.702;16.886;2023-12-04T01:27:53;28.80;;;16.70;;
34072;SDS011;20346;52.702;16.886;2023-12-04T01:30:39;26.50;;;16.80;;
34072;SDS011;20346;52.702;16.886;2023-12-04T01:33:26;22.00;;;13.70;;
34072;SDS011;20346;52.702;16.886;2023-12-04T01:38:58;27.30;;;15.10;;
34072;SDS011;20346;52.702;16.886;2023-12-04T01:41:44;25.20;;;15.20;;
34072;SDS011;20346;52.702;16.886;2023-12-04T01:44:30;24.40;;;15.40;;
34072;SDS011;20346;52.702;16.886;2023-12-04T01:50:03;21.50;;;14.00;;
34072;SDS011;20346;52.702;16.886;2023-12-04T01:52:51;26.50;;;14.90;;
34072;SDS011;20346;52.702;16.886;2023-12-04T01:55:39;22.10;;;13.80;;
34072;SDS011;20346;52.702;16.886;2023-12-04T01:58:26;26.00;;;14.90;;
34072;SDS011;20346;52.702;16.886;2023-12-04T02:03:58;22.40;;;13.60;;
34072;SDS011;20346;52.702;16.886;2023-12-04T02:06:46;23.50;;;13.50;;
34072;SDS011;20346;52.702;16.886;2023-12-04T02:12:19;24.60;;;15.30;;
34072;SDS011;20346;52.702;16.886;2023-12-04T02:17:51;22.50;;;11.60;;
34072;SDS011;20346;52.702;16.886;2023-12-04T02:20:38;22.00;;;13.50;;
34072;SDS011;20346;52.702;16.886;2023-12-04T02:26:10;22.10;;;13.40;;
34072;SDS011;20346;52.702;16.886;2023-12-04T02:29:05;19.10;;;12.90;;
34072;SDS011;20346;52.702;16.886;2023-12-04T02:31:56;24.40;;;14.80;;
34072;SDS011;20346;52.702;16.886;2023-12-04T02:34:43;22.10;;;13.10;;
34072;SDS011;20346;52.702;16.886;2023-12-04T02:37:31;21.70;;;13.50;;
34072;SDS011;20346;52.702;16.886;2023-12-04T02:40:18;22.30;;;13.80;;
34072;SDS011;20346;52.702;16.886;2023-12-04T02:43:05;22.60;;;12.90;;
34072;SDS011;20346;52.702;16.886;2023-12-04T02:45:51;22.50;;;14.30;;
34072;SDS011;20346;52.702;16.886;2023-12-04T02:48:37;22.00;;;13.20;;
34072;SDS011;20346;52.702;16.886;2023-12-04T02:51:24;23.80;;;14.30;;
34072;SDS011;20346;52.702;16.886;2023-12-04T02:54:12;22.70;;;14.00;;
34072;SDS011;20346;52.702;16.886;2023-12-04T02:56:58;21.90;;;13.90;;
34072;SDS011;20346;52.702;16.886;2023-12-04T02:59:45;24.80;;;15.10;;
34072;SDS011;20346;52.702;16.886;2023-12-04T03:02:31;21.70;;;12.90;;
34072;SDS011;20346;52.702;16.886;2023-12-04T03:05:18;25.60;;;16.00;;
34072;SDS011;20346;52.702;16.886;2023-12-04T03:08:05;29.50;;;16.40;;
34072;SDS011;20346;52.702;16.886;2023-12-04T03:10:51;31.90;;;17.60;;
34072;SDS011;20346;52.702;16.886;2023-12-04T03:13:38;29.00;;;16.50;;
34072;SDS011;20346;52.702;16.886;2023-12-04T03:16:24;26.70;;;15.80;;
34072;SDS011;20346;52.702;16.886;2023-12-04T03:19:11;27.80;;;16.40;;
34072;SDS011;20346;52.702;16.886;2023-12-04T03:21:57;24.90;;;14.60;;
34072;SDS011;20346;52.702;16.886;2023-12-04T03:24:43;30.20;;;15.80;;
34072;SDS011;20346;52.702;16.886;2023-12-04T03:27:30;24.80;;;16.90;;
34072;SDS011;20346;52.702;16.886;2023-12-04T03:30:16;30.00;;;16.60;;
34072;SDS011;20346;52.702;16.886;2023-12-04T03:33:02;26.10;;;15.90;;
34072;SDS011;20346;52.702;16.886;2023-12-04T03:35:49;27.50;;;15.20;;
34072;SDS011;20346;52.702;16.886;2023-12-04T03:38:35;28.60;;;15.60;;
34072;SDS011;20346;52.702;16.886;2023-12-04T03:41:22;27.90;;;16.70;;
34072;SDS011;20346;52.702;16.886;2023-12-04T03:44:09;25.90;;;15.40;;
34072;SDS011;20346;52.702;16.886;2023-12-04T03:46:55;26.30;;;16.00;;
34072;SDS011;20346;52.702;16.886;2023-12-04T03:49:42;24.60;;;14.60;;
34072;SDS011;20346;52.702;16.886;2023-12-04T03:52:28;26.20;;;15.00;;
34072;SDS011;20346;52.702;16.886;2023-12-04T03:55:14;28.20;;;15.50;;
34072;SDS011;20346;52.702;16.886;2023-12-04T03:58:01;27.00;;;15.90;;
34072;SDS011;20346;52.702;16.886;2023-12-04T04:00:47;27.60;;;15.90;;
34072;SDS011;20346;52.702;16.886;2023-12-04T04:03:33;26.60;;;16.00;;
34072;SDS011;20346;52.702;16.886;2023-12-04T04:06:19;28.10;;;16.60;;
34072;SDS011;20346;52.702;16.886;2023-12-04T04:09:06;25.00;;;15.20;;
34072;SDS011;20346;52.702;16.886;2023-12-04T04:11:52;30.80;;;17.70;;
34072;SDS011;20346;52.702;16.886;2023-12-04T04:14:38;28.70;;;16.20;;
34072;SDS011;20346;52.702;16.886;2023-12-04T04:17:25;25.00;;;14.80;;
34072;SDS011;20346;52.702;16.886;2023-12-04T04:20:12;30.70;;;17.00;;
34072;SDS011;20346;52.702;16.886;2023-12-04T04:22:58;32.60;;;17.10;;
34072;SDS011;20346;52.702;16.886;2023-12-04T04:25:44;34.30;;;18.90;;
34072;SDS011;20346;52.702;16.886;2023-12-04T04:28:31;32.80;;;18.50;;
34072;SDS011;20346;52.702;16.886;2023-12-04T04:31:18;31.60;;;16.80;;
34072;SDS011;20346;52.702;16.886;2023-12-04T04:34:04;29.30;;;15.90;;
34072;SDS011;20346;52.702;16.886;2023-12-04T04:36:50;33.40;;;17.30;;
34072;SDS011;20346;52.702;16.886;2023-12-04T04:39:37;31.40;;;17.30;;
34072;SDS011;20346;52.702;16.886;2023-12-04T04:42:25;35.60;;;19.40;;
34072;SDS011;20346;52.702;16.886;2023-12-04T04:45:11;39.80;;;19.50;;
34072;SDS011;20346;52.702;16.886;2023-12-04T04:47:57;34.50;;;18.10;;
34072;SDS011;20346;52.702;16.886;2023-12-04T04:53:29;41.00;;;19.90;;
34072;SDS011;20346;52.702;16.886;2023-12-04T04:56:15;41.10;;;21.10;;
34072;SDS011;20346;52.702;16.886;2023-12-04T05:01:47;32.10;;;16.50;;
34072;SDS011;20346;52.702;16.886;2023-12-04T05:04:33;35.50;;;18.80;;
34072;SDS011;20346;52.702;16.886;2023-12-04T05:07:19;40.80;;;20.20;;
34072;SDS011;20346;52.702;16.886;2023-12-04T05:12:51;32.80;;;16.80;;
34072;SDS011;20346;52.702;16.886;2023-12-04T05:18:23;37.60;;;18.30;;
34072;SDS011;20346;52.702;16.886;2023-12-04T05:23:55;42.00;;;19.10;;
34072;SDS011;20346;52.702;16.886;2023-12-04T05:26:41;35.00;;;18.80;;
34072;SDS011;20346;52.702;16.886;2023-12-04T05:29:28;32.50;;;17.70;;
34072;SDS011;20346;52.702;16.886;2023-12-04T05:35:00;36.30;;;17.90;;
34072;SDS011;20346;52.702;16.886;2023-12-04T05:37:46;40.20;;;20.20;;
34072;SDS011;20346;52.702;16.886;2023-12-04T05:43:18;37.60;;;18.10;;
34072;SDS011;20346;52.702;16.886;2023-12-04T05:46:04;38.40;;;19.90;;
34072;SDS011;20346;52.702;16.886;2023-12-04T05:48:50;40.70;;;19.60;;
34072;SDS011;20346;52.702;16.886;2023-12-04T05:51:36;40.60;;;18.50;;
34072;SDS011;20346;52.702;16.886;2023-12-04T05:54:22;34.90;;;18.80;;
34072;SDS011;20346;52.702;16.886;2023-12-04T05:59:54;37.40;;;19.00;;
34072;SDS011;20346;52.702;16.886;2023-12-04T06:05:30;44.00;;;20.70;;
34072;SDS011;20346;52.702;16.886;2023-12-04T06:08:16;40.40;;;21.00;;
34072;SDS011;20346;52.702;16.886;2023-12-04T06:13:48;40.00;;;19.60;;
34072;SDS011;20346;52.702;16.886;2023-12-04T06:19:20;36.30;;;17.20;;
34072;SDS011;20346;52.702;16.886;2023-12-04T06:24:53;46.00;;;21.50;;
34072;SDS011;20346;52.702;16.886;2023-12-04T06:27:39;49.20;;;22.80;;
34072;SDS011;20346;52.702;16.886;2023-12-04T06:30:25;48.40;;;24.20;;
34072;SDS011;20346;52.702;16.886;2023-12-04T06:33:12;53.40;;;24.90;;
34072;SDS011;20346;52.702;16.886;2023-12-04T06:36:00;64.00;;;28.20;;
34072;SDS011;20346;52.702;16.886;2023-12-04T06:38:47;66.00;;;30.80;;
34072;SDS011;20346;52.702;16.886;2023-12-04T06:41:38;72.90;;;32.40;;
34072;SDS011;20346;52.702;16.886;2023-12-04T06:44:25;61.20;;;28.20;;
34072;SDS011;20346;52.702;16.886;2023-12-04T06:47:11;64.10;;;29.70;;
34072;SDS011;20346;52.702;16.886;2023-12-04T06:49:58;60.20;;;28.20;;
34072;SDS011;20346;52.702;16.886;2023-12-04T06:52:44;61.10;;;28.50;;
34072;SDS011;20346;52.702;16.886;2023-12-04T06:58:16;65.40;;;28.10;;
34072;SDS011;20346;52.702;16.886;2023-12-04T07:01:03;59.20;;;28.10;;
34072;SDS011;20346;52.702;16.886;2023-12-04T07:03:49;63.10;;;28.70;;
34072;SDS011;20346;52.702;16.886;2023-12-04T07:06:35;64.90;;;28.50;;
34072;SDS011;20346;52.702;16.886;2023-12-04T07:09:22;60.10;;;26.90;;
34072;SDS011;20346;52.702;16.886;2023-12-04T07:12:08;56.30;;;26.10;;
34072;SDS011;20346;52.702;16.886;2023-12-04T07:14:54;57.00;;;26.30;;
34072;SDS011;20346;52.702;16.886;2023-12-04T07:20:26;64.30;;;28.20;;
34072;SDS011;20346;52.702;16.886;2023-12-04T07:25:58;61.80;;;27.30;;
34072;SDS011;20346;52.702;16.886;2023-12-04T07:31:30;69.90;;;30.90;;
34072;SDS011;20346;52.702;16.886;2023-12-04T07:34:16;69.40;;;28.40;;
34072;SDS011;20346;52.702;16.886;2023-12-04T07:37:02;69.90;;;29.90;;
34072;SDS011;20346;52.702;16.886;2023-12-04T07:39:48;65.80;;;29.20;;
34072;SDS011;20346;52.702;16.886;2023-12-04T07:42:34;72.70;;;30.40;;
34072;SDS011;20346;52.702;16.886;2023-12-04T07:45:20;58.10;;;27.60;;
34072;SDS011;20346;52.702;16.886;2023-12-04T07:48:07;55.50;;;25.00;;
34072;SDS011;20346;52.702;16.886;2023-12-04T07:50:53;53.40;;;24.10;;
34072;SDS011;20346;52.702;16.886;2023-12-04T07:56:24;55.40;;;25.40;;
34072;SDS011;20346;52.702;16.886;2023-12-04T07:59:10;53.50;;;25.00;;
34072;SDS011;20346;52.702;16.886;2023-12-04T08:01:56;56.90;;;23.80;;
34072;SDS011;20346;52.702;16.886;2023-12-04T08:04:42;55.00;;;24.80;;
34072;SDS011;20346;52.702;16.886;2023-12-04T08:10:14;53.50;;;25.30;;
34072;SDS011;20346;52.702;16.886;2023-12-04T08:13:01;57.00;;;26.20;;
34072;SDS011;20346;52.702;16.886;2023-12-04T08:15:47;60.40;;;27.20;;
34072;SDS011;20346;52.702;16.886;2023-12-04T08:18:33;59.00;;;27.50;;
34072;SDS011;20346;52.702;16.886;2023-12-04T08:21:19;55.90;;;28.20;;
34072;SDS011;20346;52.702;16.886;2023-12-04T08:24:05;66.00;;;29.50;;
34072;SDS011;20346;52.702;16.886;2023-12-04T08:29:39;68.20;;;30.80;;
34072;SDS011;20346;52.702;16.886;2023-12-04T08:32:25;61.40;;;29.20;;
34072;SDS011;20346;52.702;16.886;2023-12-04T08:35:14;73.10;;;34.20;;
34072;SDS011;20346;52.702;16.886;2023-12-04T08:38:00;66.30;;;32.40;;
34072;SDS011;20346;52.702;16.886;2023-12-04T08:40:46;61.20;;;31.30;;
34072;SDS011;20346;52.702;16.886;2023-12-04T08:43:32;60.50;;;30.20;;
34072;SDS011;20346;52.702;16.886;2023-12-04T08:46:18;64.90;;;31.50;;
34072;SDS011;20346;52.702;16.886;2023-12-04T08:49:04;55.30;;;28.10;;
34072;SDS011;20346;52.702;16.886;2023-12-04T08:51:51;61.80;;;30.40;;
34072;SDS011;20346;52.702;16.886;2023-12-04T08:54:41;59.10;;;30.50;;
34072;SDS011;20346;52.702;16.886;2023-12-04T08:57:27;64.90;;;32.50;;
34072;SDS011;20346;52.702;16.886;2023-12-04T09:00:13;61.20;;;31.00;;
34072;SDS011;20346;52.702;16.886;2023-12-04T09:05:45;54.90;;;30.10;;
34072;SDS011;20346;52.702;16.886;2023-12-04T09:08:31;54.90;;;30.30;;
34072;SDS011;20346;52.702;16.886;2023-12-04T09:11:18;53.70;;;30.00;;
34072;SDS011;20346;52.702;16.886;2023-12-04T09:14:04;50.60;;;28.10;;
34072;SDS011;20346;52.702;16.886;2023-12-04T09:16:51;50.10;;;29.00;;
34072;SDS011;20346;52.702;16.886;2023-12-04T09:19:37;42.00;;;25.20;;
34072;SDS011;20346;52.702;16.886;2023-12-04T09:22:23;42.80;;;24.60;;
34072;SDS011;20346;52.702;16.886;2023-12-04T09:25:10;42.60;;;26.10;;
34072;SDS011;20346;52.702;16.886;2023-12-04T09:27:56;42.10;;;25.00;;
34072;SDS011;20346;52.702;16.886;2023-12-04T09:30:42;44.90;;;24.90;;
34072;SDS011;20346;52.702;16.886;2023-12-04T09:33:29;41.30;;;25.60;;
34072;SDS011;20346;52.702;16.886;2023-12-04T09:36:15;44.80;;;25.50;;
34072;SDS011;20346;52.702;16.886;2023-12-04T09:39:02;45.80;;;25.70;;
34072;SDS011;20346;52.702;16.886;2023-12-04T09:41:50;50.50;;;29.20;;
34072;SDS011;20346;52.702;16.886;2023-12-04T09:44:36;49.40;;;28.70;;
34072;SDS011;20346;52.702;16.886;2023-12-04T09:47:23;45.10;;;26.00;;
34072;SDS011;20346;52.702;16.886;2023-12-04T09:50:11;54.50;;;30.60;;
34072;SDS011;20346;52.702;16.886;2023-12-04T09:55:49;46.20;;;26.60;;
34072;SDS011;20346;52.702;16.886;2023-12-04T09:58:35;47.00;;;27.10;;
34072;SDS011;20346;52.702;16.886;2023-12-04T10:01:27;44.00;;;25.80;;
34072;SDS011;20346;52.702;16.886;2023-12-04T10:04:15;45.40;;;27.20;;
34072;SDS011;20346;52.702;16.886;2023-12-04T10:07:02;41.40;;;27.70;;
34072;SDS011;20346;52.702;16.886;2023-12-04T10:09:49;43.90;;;28.00;;
34072;SDS011;20346;52.702;16.886;2023-12-04T10:12:35;42.30;;;27.40;;
34072;SDS011;20346;52.702;16.886;2023-12-04T10:15:22;44.20;;;28.60;;
34072;SDS011;20346;52.702;16.886;2023-12-04T10:18:10;44.50;;;28.10;;
34072;SDS011;20346;52.702;16.886;2023-12-04T10:21:10;38.50;;;27.10;;
34072;SDS011;20346;52.702;16.886;2023-12-04T10:23:56;37.90;;;27.00;;
34072;SDS011;20346;52.702;16.886;2023-12-04T10:26:49;38.10;;;27.50;;
34072;SDS011;20346;52.702;16.886;2023-12-04T10:29:48;39.50;;;28.70;;
34072;SDS011;20346;52.702;16.886;2023-12-04T10:35:30;45.90;;;27.10;;
34072;SDS011;20346;52.702;16.886;2023-12-04T10:38:24;34.40;;;26.20;;
34072;SDS011;20346;52.702;16.886;2023-12-04T10:41:13;66.70;;;31.20;;
34072;SDS011;20346;52.702;16.886;2023-12-04T10:46:46;66.30;;;29.50;;
34072;SDS011;20346;52.702;16.886;2023-12-04T10:52:21;79.50;;;30.80;;
34072;SDS011;20346;52.702;16.886;2023-12-04T10:55:07;36.70;;;28.30;;
34072;SDS011;20346;52.702;16.886;2023-12-04T10:57:56;43.00;;;24.80;;
34072;SDS011;20346;52.702;16.886;2023-12-04T11:00:44;34.50;;;25.30;;
34072;SDS011;20346;52.702;16.886;2023-12-04T11:03:33;32.10;;;23.60;;
34072;SDS011;20346;52.702;16.886;2023-12-04T11:06:23;28.40;;;21.90;;
34072;SDS011;20346;52.702;16.886;2023-12-04T11:09:13;30.10;;;22.60;;
34072;SDS011;20346;52.702;16.886;2023-12-04T11:12:02;29.30;;;21.40;;
34072;SDS011;20346;52.702;16.886;2023-12-04T11:14:53;31.30;;;22.00;;
34072;SDS011;20346;52.702;16.886;2023-12-04T11:17:46;34.60;;;23.40;;
34072;SDS011;20346;52.702;16.886;2023-12-04T11:20:39;35.00;;;24.00;;
34072;SDS011;20346;52.702;16.886;2023-12-04T11:23:30;35.90;;;23.10;;
34072;SDS011;20346;52.702;16.886;2023-12-04T11:26:17;33.00;;;22.70;;
34072;SDS011;20346;52.702;16.886;2023-12-04T11:29:04;40.10;;;24.80;;
34072;SDS011;20346;52.702;16.886;2023-12-04T11:31:51;33.00;;;23.20;;
34072;SDS011;20346;52.702;16.886;2023-12-04T11:34:38;32.40;;;22.10;;
34072;SDS011;20346;52.702;16.886;2023-12-04T11:37:33;36.70;;;23.70;;
34072;SDS011;20346;52.702;16.886;2023-12-04T11:40:23;26.90;;;19.80;;
34072;SDS011;20346;52.702;16.886;2023-12-04T11:43:26;33.00;;;22.80;;
34072;SDS011;20346;52.702;16.886;2023-12-04T11:46:13;32.00;;;22.50;;
34072;SDS011;20346;52.702;16.886;2023-12-04T11:52:11;31.60;;;22.20;;
34072;SDS011;20346;52.702;16.886;2023-12-04T11:54:59;33.50;;;22.40;;
34072;SDS011;20346;52.702;16.886;2023-12-04T11:57:45;43.60;;;27.20;;
34072;SDS011;20346;52.702;16.886;2023-12-04T12:00:34;49.50;;;30.50;;
34072;SDS011;20346;52.702;16.886;2023-12-04T12:03:21;54.70;;;32.30;;
34072;SDS011;20346;52.702;16.886;2023-12-04T12:08:55;50.00;;;29.20;;
34072;SDS011;20346;52.702;16.886;2023-12-04T12:11:41;56.70;;;30.90;;
34072;SDS011;20346;52.702;16.886;2023-12-04T12:17:15;49.30;;;28.70;;
34072;SDS011;20346;52.702;16.886;2023-12-04T12:20:01;48.20;;;28.70;;
34072;SDS011;20346;52.702;16.886;2023-12-04T12:22:49;49.20;;;27.90;;
34072;SDS011;20346;52.702;16.886;2023-12-04T12:25:36;49.30;;;27.90;;
34072;SDS011;20346;52.702;16.886;2023-12-04T12:28:22;49.00;;;27.80;;
34072;SDS011;20346;52.702;16.886;2023-12-04T12:31:09;51.80;;;27.60;;
34072;SDS011;20346;52.702;16.886;2023-12-04T12:36:42;46.50;;;26.40;;
34072;SDS011;20346;52.702;16.886;2023-12-04T12:39:30;47.00;;;27.30;;
34072;SDS011;20346;52.702;16.886;2023-12-04T12:42:27;46.00;;;27.90;;
34072;SDS011;20346;52.702;16.886;2023-12-04T12:45:14;50.00;;;26.80;;
34072;SDS011;20346;52.702;16.886;2023-12-04T12:48:00;41.00;;;24.30;;
34072;SDS011;20346;52.702;16.886;2023-12-04T12:50:48;43.10;;;23.10;;
34072;SDS011;20346;52.702;16.886;2023-12-04T12:56:20;33.40;;;22.20;;
34072;SDS011;20346;52.702;16.886;2023-12-04T12:59:07;34.90;;;23.10;;
34072;SDS011;20346;52.702;16.886;2023-12-04T13:01:54;30.70;;;20.50;;
34072;SDS011;20346;52.702;16.886;2023-12-04T13:04:43;34.50;;;22.10;;
34072;SDS011;20346;52.702;16.886;2023-12-04T13:07:30;36.90;;;20.90;;
34072;SDS011;20346;52.702;16.886;2023-12-04T13:10:16;32.30;;;20.00;;
34072;SDS011;20346;52.702;16.886;2023-12-04T13:13:02;28.10;;;19.40;;
34072;SDS011;20346;52.702;16.886;2023-12-04T13:21:22;31.40;;;19.00;;
34072;SDS011;20346;52.702;16.886;2023-12-04T13:24:08;28.80;;;18.90;;
34072;SDS011;20346;52.702;16.886;2023-12-04T13:26:56;32.60;;;18.80;;
34072;SDS011;20346;52.702;16.886;2023-12-04T13:29:42;32.70;;;20.60;;
34072;SDS011;20346;52.702;16.886;2023-12-04T13:32:28;29.80;;;18.20;;
34072;SDS011;20346;52.702;16.886;2023-12-04T13:35:14;28.90;;;17.80;;
34072;SDS011;20346;52.702;16.886;2023-12-04T13:40:47;29.10;;;17.20;;
34072;SDS011;20346;52.702;16.886;2023-12-04T13:43:38;31.50;;;18.60;;
34072;SDS011;20346;52.702;16.886;2023-12-04T13:46:37;32.10;;;17.90;;
34072;SDS011;20346;52.702;16.886;2023-12-04T13:52:09;34.70;;;18.10;;
34072;SDS011;20346;52.702;16.886;2023-12-04T13:57:43;33.30;;;17.50;;
34072;SDS011;20346;52.702;16.886;2023-12-04T14:00:44;35.70;;;18.90;;
34072;SDS011;20346;52.702;16.886;2023-12-04T14:06:17;32.00;;;17.20;;
34072;SDS011;20346;52.702;16.886;2023-12-04T14:09:03;42.50;;;19.70;;
34072;SDS011;20346;52.702;16.886;2023-12-04T14:11:55;37.80;;;21.20;;
34072;SDS011;20346;52.702;16.886;2023-12-04T14:14:42;48.40;;;22.40;;
34072;SDS011;20346;52.702;16.886;2023-12-04T14:17:28;41.20;;;21.10;;
34072;SDS011;20346;52.702;16.886;2023-12-04T14:20:15;42.10;;;20.90;;
34072;SDS011;20346;52.702;16.886;2023-12-04T14:23:04;40.50;;;21.20;;
34072;SDS011;20346;52.702;16.886;2023-12-04T14:25:50;40.50;;;21.60;;
34072;SDS011;20346;52.702;16.886;2023-12-04T14:28:37;40.40;;;21.30;;
34072;SDS011;20346;52.702;16.886;2023-12-04T14:31:23;46.20;;;23.20;;
34072;SDS011;20346;52.702;16.886;2023-12-04T14:34:10;45.90;;;22.90;;
34072;SDS011;20346;52.702;16.886;2023-12-04T14:36:56;41.50;;;21.70;;
34072;SDS011;20346;52.702;16.886;2023-12-04T14:39:42;47.50;;;21.80;;
34072;SDS011;20346;52.702;16.886;2023-12-04T14:42:29;47.90;;;23.20;;
34072;SDS011;20346;52.702;16.886;2023-12-04T14:45:15;42.20;;;22.60;;
34072;SDS011;20346;52.702;16.886;2023-12-04T14:48:03;46.10;;;21.90;;
34072;SDS011;20346;52.702;16.886;2023-12-04T14:50:52;41.80;;;21.70;;
34072;SDS011;20346;52.702;16.886;2023-12-04T14:56:36;39.40;;;20.30;;
34072;SDS011;20346;52.702;16.886;2023-12-04T14:59:22;44.10;;;20.80;;
34072;SDS011;20346;52.702;16.886;2023-12-04T15:02:29;44.60;;;22.90;;
34072;SDS011;20346;52.702;16.886;2023-12-04T15:05:34;51.80;;;23.90;;
34072;SDS011;20346;52.702;16.886;2023-12-04T15:08:39;48.70;;;22.90;;
34072;SDS011;20346;52.702;16.886;2023-12-04T15:11:43;50.10;;;23.50;;
34072;SDS011;20346;52.702;16.886;2023-12-04T15:14:52;50.80;;;23.70;;
34072;SDS011;20346;52.702;16.886;2023-12-04T15:17:46;54.20;;;25.90;;
34072;SDS011;20346;52.702;16.886;2023-12-04T15:20:59;56.60;;;26.10;;
34072;SDS011;20346;52.702;16.886;2023-12-04T15:23:45;60.10;;;25.20;;
34072;SDS011;20346;52.702;16.886;2023-12-04T15:26:32;54.60;;;24.90;;
34072;SDS011;20346;52.702;16.886;2023-12-04T15:29:18;53.60;;;26.50;;
34072;SDS011;20346;52.702;16.886;2023-12-04T15:32:06;64.60;;;28.70;;
34072;SDS011;20346;52.702;16.886;2023-12-04T15:34:53;63.00;;;28.10;;
34072;SDS011;20346;52.702;16.886;2023-12-04T15:37:39;65.90;;;29.80;;
34072;SDS011;20346;52.702;16.886;2023-12-04T15:40:25;58.70;;;27.00;;
34072;SDS011;20346;52.702;16.886;2023-12-04T15:43:11;51.70;;;24.40;;
34072;SDS011;20346;52.702;16.886;2023-12-04T15:45:58;54.10;;;25.60;;
34072;SDS011;20346;52.702;16.886;2023-12-04T15:48:44;54.60;;;25.90;;
34072;SDS011;20346;52.702;16.886;2023-12-04T15:51:31;57.20;;;25.90;;
34072;SDS011;20346;52.702;16.886;2023-12-04T15:57:03;62.50;;;27.10;;
34072;SDS011;20346;52.702;16.886;2023-12-04T15:59:50;75.20;;;31.40;;
34072;SDS011;20346;52.702;16.886;2023-12-04T16:02:37;69.90;;;29.30;;
34072;SDS011;20346;52.702;16.886;2023-12-04T16:05:25;67.40;;;32.30;;
34072;SDS011;20346;52.702;16.886;2023-12-04T16:08:11;66.00;;;29.80;;
34072;SDS011;20346;52.702;16.886;2023-12-04T16:10:58;63.10;;;28.90;;
34072;SDS011;20346;52.702;16.886;2023-12-04T16:13:44;61.10;;;28.40;;
34072;SDS011;20346;52.702;16.886;2023-12-04T16:16:30;72.10;;;31.50;;
34072;SDS011;20346;52.702;16.886;2023-12-04T16:19:17;67.20;;;29.70;;
34072;SDS011;20346;52.702;16.886;2023-12-04T16:22:03;66.90;;;30.80;;
34072;SDS011;20346;52.702;16.886;2023-12-04T16:24:49;68.30;;;29.00;;
34072;SDS011;20346;52.702;16.886;2023-12-04T16:27:36;61.20;;;27.30;;
34072;SDS011;20346;52.702;16.886;2023-12-04T16:30:24;52.70;;;24.70;;
34072;SDS011;20346;52.702;16.886;2023-12-04T16:33:11;52.70;;;24.30;;
34072;SDS011;20346;52.702;16.886;2023-12-04T16:35:57;47.90;;;23.40;;
34072;SDS011;20346;52.702;16.886;2023-12-04T16:38:44;49.90;;;23.20;;
34072;SDS011;20346;52.702;16.886;2023-12-04T16:44:16;45.40;;;20.90;;
34072;SDS011;20346;52.702;16.886;2023-12-04T16:47:04;40.80;;;20.80;;
34072;SDS011;20346;52.702;16.886;2023-12-04T16:49:50;44.50;;;21.30;;
34072;SDS011;20346;52.702;16.886;2023-12-04T16:52:36;46.70;;;23.00;;
34072;SDS011;20346;52.702;16.886;2023-12-04T16:58:08;44.20;;;21.70;;
34072;SDS011;20346;52.702;16.886;2023-12-04T17:00:55;41.10;;;21.30;;
34072;SDS011;20346;52.702;16.886;2023-12-04T17:03:41;46.00;;;21.90;;
34072;SDS011;20346;52.702;16.886;2023-12-04T17:06:28;44.40;;;22.60;;
34072;SDS011;20346;52.702;16.886;2023-12-04T17:09:14;45.00;;;22.80;;
34072;SDS011;20346;52.702;16.886;2023-12-04T17:12:00;46.90;;;24.50;;
34072;SDS011;20346;52.702;16.886;2023-12-04T17:14:46;47.70;;;23.90;;
34072;SDS011;20346;52.702;16.886;2023-12-04T17:17:32;44.80;;;23.30;;
34072;SDS011;20346;52.702;16.886;2023-12-04T17:20:18;46.40;;;23.20;;
34072;SDS011;20346;52.702;16.886;2023-12-04T17:23:04;49.20;;;22.60;;
34072;SDS011;20346;52.702;16.886;2023-12-04T17:25:51;49.20;;;24.60;;
34072;SDS011;20346;52.702;16.886;2023-12-04T17:28:43;48.20;;;25.40;;
34072;SDS011;20346;52.702;16.886;2023-12-04T17:31:29;48.30;;;23.90;;
34072;SDS011;20346;52.702;16.886;2023-12-04T17:34:16;50.10;;;25.20;;
34072;SDS011;20346;52.702;16.886;2023-12-04T17:37:02;55.60;;;25.00;;
34072;SDS011;20346;52.702;16.886;2023-12-04T17:39:49;52.00;;;26.70;;
34072;SDS011;20346;52.702;16.886;2023-12-04T17:42:36;57.10;;;25.60;;
34072;SDS011;20346;52.702;16.886;2023-12-04T17:45:23;47.90;;;23.60;;
34072;SDS011;20346;52.702;16.886;2023-12-04T17:48:10;49.10;;;24.60;;
34072;SDS011;20346;52.702;16.886;2023-12-04T17:50:56;49.40;;;24.20;;
34072;SDS011;20346;52.702;16.886;2023-12-04T17:53:42;52.40;;;26.60;;
34072;SDS011;20346;52.702;16.886;2023-12-04T17:56:29;55.80;;;26.10;;
34072;SDS011;20346;52.702;16.886;2023-12-04T17:59:15;52.60;;;25.60;;
34072;SDS011;20346;52.702;16.886;2023-12-04T18:02:02;58.80;;;26.20;;
34072;SDS011;20346;52.702;16.886;2023-12-04T18:04:49;50.30;;;25.00;;
34072;SDS011;20346;52.702;16.886;2023-12-04T18:07:35;54.50;;;26.30;;
34072;SDS011;20346;52.702;16.886;2023-12-04T18:10:22;54.90;;;25.70;;
34072;SDS011;20346;52.702;16.886;2023-12-04T18:13:08;64.30;;;28.30;;
34072;SDS011;20346;52.702;16.886;2023-12-04T18:15:55;60.80;;;28.50;;
34072;SDS011;20346;52.702;16.886;2023-12-04T18:18:41;65.40;;;30.50;;